createdAt,value
2022-08-07T00:00:57.050Z,0.00
2022-08-07T00:02:40.681Z,0.00
2022-08-07T00:02:57.037Z,0.00
2022-08-07T00:03:56.048Z,0.00
2022-08-07T00:04:56.071Z,0.00
2022-08-07T00:05:55.999Z,0.00
2022-08-07T00:06:55.978Z,0.00
2022-08-07T00:07:58.492Z,0.00
2022-08-07T00:08:55.977Z,0.00
2022-08-07T00:10:19.023Z,0.00
2022-08-07T00:10:58.375Z,0.00
2022-08-07T00:11:58.758Z,0.00
2022-08-07T00:12:59.747Z,0.00
2022-08-07T00:13:56.876Z,0.00
2022-08-07T00:14:55.896Z,0.00
2022-08-07T00:15:55.869Z,0.00
2022-08-07T00:16:55.839Z,0.00
2022-08-07T00:17:55.819Z,0.00
2022-08-07T00:18:55.836Z,0.00
2022-08-07T00:20:01.473Z,0.00
2022-08-07T00:20:57.506Z,0.00
2022-08-07T00:22:02.323Z,0.00
2022-08-07T00:22:56.758Z,0.00
2022-08-07T00:23:55.759Z,0.00
2022-08-07T00:24:55.756Z,0.00
2022-08-07T00:26:00.363Z,0.00
2022-08-07T00:27:06.215Z,0.00
2022-08-07T00:27:56.745Z,0.00
2022-08-07T00:28:57.007Z,0.00
2022-08-07T00:29:55.666Z,0.00
2022-08-07T00:30:55.649Z,0.00
2022-08-07T00:31:55.638Z,0.00
2022-08-07T00:32:55.673Z,0.00
2022-08-07T00:33:55.612Z,0.00
2022-08-07T00:34:55.651Z,0.00
2022-08-07T00:35:55.580Z,0.00
2022-08-07T00:36:55.596Z,0.00
2022-08-07T00:37:55.579Z,0.00
2022-08-07T00:38:55.546Z,0.00
2022-08-07T00:39:55.584Z,0.00
2022-08-07T00:40:55.529Z,0.00
2022-08-07T00:42:01.846Z,0.00
2022-08-07T00:42:56.517Z,0.00
2022-08-07T00:44:01.747Z,0.00
2022-08-07T00:44:56.499Z,0.00
2022-08-07T00:45:55.459Z,0.00
2022-08-07T00:46:55.448Z,0.00
2022-08-07T00:48:08.814Z,0.00
2022-08-07T00:48:56.495Z,0.00
2022-08-07T00:50:20.545Z,0.00
2022-08-07T00:50:56.410Z,0.00
2022-08-07T00:51:57.196Z,0.00
2022-08-07T00:52:55.407Z,0.00
2022-08-07T00:53:55.992Z,0.00
2022-08-07T00:54:55.337Z,0.00
2022-08-07T00:56:00.678Z,0.00
2022-08-07T00:56:56.322Z,0.00
2022-08-07T00:57:56.341Z,0.00
2022-08-07T00:58:55.281Z,0.00
2022-08-07T00:59:55.287Z,0.00
2022-08-07T01:00:55.272Z,0.00
2022-08-07T01:01:57.806Z,0.00
2022-08-07T01:02:55.238Z,0.00
2022-08-07T01:04:00.231Z,0.00
2022-08-07T01:04:58.335Z,0.00
2022-08-07T01:05:55.189Z,0.00
2022-08-07T01:06:55.176Z,0.00
2022-08-07T01:07:55.263Z,0.00
2022-08-07T01:08:55.784Z,0.00
2022-08-07T01:10:06.016Z,0.00
2022-08-07T01:10:56.575Z,0.00
2022-08-07T01:12:27.578Z,0.00
2022-08-07T01:12:56.126Z,0.00
2022-08-07T01:13:55.995Z,0.00
2022-08-07T01:14:57.141Z,0.00
2022-08-07T01:16:05.727Z,0.00
2022-08-07T01:16:56.055Z,0.00
2022-08-07T01:17:55.057Z,0.00
2022-08-07T01:18:55.031Z,0.00
2022-08-07T01:19:55.009Z,0.00
2022-08-07T01:20:59.547Z,0.00
2022-08-07T01:21:55.334Z,0.00
2022-08-07T01:23:09.108Z,0.00
2022-08-07T01:23:55.966Z,0.00
2022-08-07T01:24:54.938Z,0.00
2022-08-07T01:25:56.307Z,0.00
2022-08-07T01:26:54.916Z,0.00
2022-08-07T01:27:54.908Z,0.00
2022-08-07T01:28:54.884Z,0.00
2022-08-07T01:29:54.879Z,0.00
2022-08-07T01:30:54.857Z,0.00
2022-08-07T01:31:54.846Z,0.00
2022-08-07T01:32:54.848Z,0.00
2022-08-07T01:33:55.498Z,0.00
2022-08-07T01:34:54.832Z,0.00
2022-08-07T01:36:06.062Z,0.00
2022-08-07T01:36:58.289Z,0.00
2022-08-07T01:37:54.809Z,0.00
2022-08-07T01:38:54.764Z,0.00
2022-08-07T01:39:54.841Z,0.00
2022-08-07T01:40:54.752Z,0.00
2022-08-07T01:42:07.519Z,0.00
2022-08-07T01:42:58.637Z,0.00
2022-08-07T01:43:54.705Z,0.00
2022-08-07T01:44:54.677Z,0.00
2022-08-07T01:45:54.783Z,0.00
2022-08-07T01:46:54.667Z,0.00
2022-08-07T01:48:19.710Z,0.00
2022-08-07T01:48:55.623Z,0.00
2022-08-07T01:49:54.888Z,0.00
2022-08-07T01:50:55.531Z,0.00
2022-08-07T01:52:03.833Z,0.00
2022-08-07T01:52:55.605Z,0.00
2022-08-07T01:54:08.798Z,0.00
2022-08-07T01:54:55.566Z,0.00
2022-08-07T01:55:54.566Z,0.00
2022-08-07T01:56:55.148Z,0.00
2022-08-07T01:58:06.112Z,0.00
2022-08-07T01:58:55.506Z,0.00
2022-08-07T01:59:54.574Z,0.00
2022-08-07T02:00:57.999Z,0.00
2022-08-07T02:02:01.617Z,0.00
2022-08-07T02:03:19.035Z,0.00
2022-08-07T02:03:55.489Z,0.00
2022-08-07T02:04:56.565Z,0.00
2022-08-07T02:06:00.836Z,0.00
2022-08-07T02:06:55.401Z,0.00
2022-08-07T02:07:54.433Z,0.00
2022-08-07T02:08:54.579Z,0.00
2022-08-07T02:09:58.771Z,0.00
2022-08-07T02:10:55.246Z,0.00
2022-08-07T02:12:03.572Z,0.00
2022-08-07T02:12:55.315Z,0.00
2022-08-07T02:13:57.316Z,0.00
2022-08-07T02:14:54.283Z,0.00
2022-08-07T02:15:54.282Z,0.00
2022-08-07T02:16:54.295Z,0.00
2022-08-07T02:17:54.287Z,0.00
2022-08-07T02:18:54.242Z,0.00
2022-08-07T02:20:07.525Z,0.00
2022-08-07T02:20:57.282Z,0.00
2022-08-07T02:21:56.705Z,0.00
2022-08-07T02:22:55.128Z,0.00
2022-08-07T02:23:54.173Z,0.00
2022-08-07T02:24:54.152Z,0.00
2022-08-07T02:26:30.698Z,0.00
2022-08-07T02:26:55.133Z,0.00
2022-08-07T02:27:54.130Z,0.00
2022-08-07T02:28:54.131Z,0.00
2022-08-07T02:29:54.990Z,0.00
2022-08-07T02:30:54.075Z,0.00
2022-08-07T02:31:54.625Z,0.00
2022-08-07T02:33:03.658Z,0.00
2022-08-07T02:34:03.583Z,0.00
2022-08-07T02:34:55.024Z,0.00
2022-08-07T02:36:30.672Z,0.00
2022-08-07T02:36:54.999Z,0.00
2022-08-07T02:37:53.999Z,0.00
2022-08-07T02:38:56.781Z,0.00
2022-08-07T02:40:02.324Z,0.00
2022-08-07T02:40:56.001Z,0.00
2022-08-07T02:41:54.484Z,0.00
2022-08-07T02:42:53.930Z,0.00
2022-08-07T02:43:53.912Z,0.00
2022-08-07T02:44:53.901Z,0.00
2022-08-07T02:45:58.876Z,0.00
2022-08-07T02:46:54.860Z,0.00
2022-08-07T02:47:53.865Z,0.00
2022-08-07T02:48:54.728Z,0.00
2022-08-07T02:49:58.784Z,0.00
2022-08-07T02:50:54.819Z,0.00
2022-08-07T02:51:53.817Z,0.00
2022-08-07T02:52:53.812Z,0.00
2022-08-07T02:53:54.819Z,0.00
2022-08-07T02:54:53.760Z,0.00
2022-08-07T02:56:03.291Z,0.00
2022-08-07T02:56:54.744Z,0.00
2022-08-07T02:57:53.744Z,0.00
2022-08-07T02:58:54.253Z,0.00
2022-08-07T02:59:55.148Z,0.00
2022-08-07T03:00:54.718Z,0.00
2022-08-07T03:01:55.481Z,0.00
2022-08-07T03:02:55.127Z,0.00
2022-08-07T03:03:53.656Z,0.00
2022-08-07T03:04:53.640Z,0.00
2022-08-07T03:05:53.802Z,0.00
2022-08-07T03:06:53.619Z,4.00
2022-08-07T03:08:06.835Z,0.00
2022-08-07T03:08:54.577Z,0.00
2022-08-07T03:09:53.589Z,4.00
2022-08-07T03:10:53.560Z,0.00
2022-08-07T03:11:57.992Z,4.00
2022-08-07T03:12:54.533Z,0.00
2022-08-07T03:13:57.709Z,4.00
2022-08-07T03:14:54.502Z,4.00
2022-08-07T03:15:56.680Z,4.00
2022-08-07T03:16:54.508Z,4.00
2022-08-07T03:17:54.631Z,4.00
2022-08-07T03:18:53.448Z,4.00
2022-08-07T03:19:54.608Z,8.00
2022-08-07T03:20:53.428Z,12.00
2022-08-07T03:21:53.420Z,8.00
2022-08-07T03:22:53.406Z,12.00
2022-08-07T03:24:20.820Z,16.00
2022-08-07T03:24:54.406Z,16.00
2022-08-07T03:25:58.359Z,20.00
2022-08-07T03:26:58.306Z,20.00
2022-08-07T03:28:09.024Z,24.00
2022-08-07T03:28:54.335Z,28.00
2022-08-07T03:29:53.304Z,32.00
2022-08-07T03:30:53.286Z,32.00
2022-08-07T03:31:53.288Z,36.00
2022-08-07T03:32:58.754Z,44.00
2022-08-07T03:33:54.261Z,48.00
2022-08-07T03:35:16.980Z,52.00
2022-08-07T03:35:54.274Z,60.00
2022-08-07T03:36:53.789Z,64.00
2022-08-07T03:37:55.078Z,72.00
2022-08-07T03:38:53.187Z,80.00
2022-08-07T03:39:59.464Z,88.00
2022-08-07T03:40:57.358Z,96.00
2022-08-07T03:41:53.330Z,104.00
2022-08-07T03:42:53.127Z,112.00
2022-08-07T03:43:57.487Z,120.00
2022-08-07T03:44:57.820Z,132.00
2022-08-07T03:45:54.123Z,140.00
2022-08-07T03:47:11.300Z,152.00
2022-08-07T03:47:54.077Z,164.00
2022-08-07T03:49:03.067Z,176.00
2022-08-07T03:49:54.043Z,188.00
2022-08-07T03:50:57.778Z,204.00
2022-08-07T03:51:55.126Z,216.00
2022-08-07T03:52:54.000Z,232.00
2022-08-07T03:54:32.990Z,252.00
2022-08-07T03:54:57.396Z,264.00
2022-08-07T03:56:04.100Z,284.00
2022-08-07T03:57:03.387Z,300.00
2022-08-07T03:58:33.518Z,320.00
2022-08-07T03:59:07.889Z,340.00
2022-08-07T04:00:01.660Z,360.00
2022-08-07T04:00:56.999Z,380.00
2022-08-07T04:01:53.957Z,396.00
2022-08-07T04:02:52.864Z,420.00
2022-08-07T04:03:55.161Z,436.00
2022-08-07T04:04:52.846Z,460.00
2022-08-07T04:05:52.843Z,480.00
2022-08-07T04:06:54.078Z,500.00
2022-08-07T04:07:52.805Z,520.00
2022-08-07T04:08:52.832Z,544.00
2022-08-07T04:09:52.812Z,568.00
2022-08-07T04:10:53.912Z,584.00
2022-08-07T04:12:24.267Z,604.00
2022-08-07T04:12:53.743Z,624.00
2022-08-07T04:14:33.079Z,644.00
2022-08-07T04:14:53.710Z,664.00
2022-08-07T04:15:52.706Z,688.00
2022-08-07T04:16:58.499Z,716.00
2022-08-07T04:18:58.078Z,744.00
2022-08-07T04:18:59.067Z,768.00
2022-08-07T04:19:54.415Z,792.00
2022-08-07T04:20:54.645Z,816.00
2022-08-07T04:21:59.104Z,840.00
2022-08-07T04:23:01.756Z,864.00
2022-08-07T04:24:07.296Z,888.00
2022-08-07T04:24:53.575Z,912.00
2022-08-07T04:25:52.578Z,936.00
2022-08-07T04:26:52.562Z,964.00
2022-08-07T04:27:59.302Z,984.00
2022-08-07T04:28:53.527Z,1008.00
2022-08-07T04:30:01.608Z,1028.00
2022-08-07T04:30:56.711Z,1052.00
2022-08-07T04:32:02.984Z,1072.00
2022-08-07T04:32:58.429Z,1096.00
2022-08-07T04:33:54.992Z,1120.00
2022-08-07T04:34:52.465Z,1152.00
2022-08-07T04:35:53.997Z,1180.00
2022-08-07T04:36:52.445Z,1208.00
2022-08-07T04:38:03.587Z,1236.00
2022-08-07T04:38:53.406Z,1264.00
2022-08-07T04:39:52.439Z,1296.00
2022-08-07T04:40:56.786Z,1328.00
2022-08-07T04:41:52.364Z,1360.00
2022-08-07T04:42:52.544Z,1404.00
2022-08-07T04:44:11.964Z,1448.00
2022-08-07T04:44:54.394Z,1496.00
2022-08-07T04:46:01.371Z,1552.00
2022-08-07T04:47:03.912Z,1636.00
2022-08-07T04:48:01.037Z,4024.00
2022-08-07T04:48:53.265Z,21056.00
2022-08-07T04:50:03.476Z,35168.00
2022-08-07T04:50:54.012Z,34816.00
2022-08-07T04:51:52.247Z,23552.00
2022-08-07T04:52:52.833Z,13696.00
2022-08-07T04:54:05.474Z,14976.00
2022-08-07T04:54:53.191Z,17024.00
2022-08-07T04:58:11.092Z,26272.00
2022-08-07T04:58:14.419Z,27616.00
2022-08-07T04:58:14.864Z,16672.00
2022-08-07T05:00:07.897Z,27072.00
2022-08-07T05:00:09.732Z,41920.00
2022-08-07T05:00:53.130Z,35328.00
2022-08-07T05:01:52.129Z,19968.00
2022-08-07T05:02:52.092Z,11168.00
2022-08-07T05:04:06.392Z,18400.00
2022-08-07T05:04:53.055Z,39360.00
2022-08-07T05:05:57.243Z,49472.00
2022-08-07T05:06:53.447Z,47552.00
2022-08-07T05:07:52.065Z,34336.00
2022-08-07T05:09:00.688Z,20128.00
2022-08-07T05:09:53.011Z,19776.00
2022-08-07T05:10:58.344Z,20544.00
2022-08-07T05:11:58.165Z,22880.00
2022-08-07T05:12:55.244Z,36320.00
2022-08-07T05:14:54.136Z,26816.00
2022-08-07T05:15:04.541Z,24448.00
2022-08-07T05:15:53.593Z,38432.00
2022-08-07T05:16:52.621Z,45760.00
2022-08-07T05:17:55.268Z,30560.00
2022-08-07T05:18:51.883Z,19616.00
2022-08-07T05:19:51.863Z,19872.00
2022-08-07T05:20:51.838Z,25632.00
2022-08-07T05:21:58.925Z,50848.00
2022-08-07T05:22:52.972Z,62336.00
2022-08-07T05:23:51.813Z,52512.00
2022-08-07T05:24:51.804Z,43552.00
2022-08-07T05:26:10.882Z,16960.00
2022-08-07T05:26:52.787Z,10748.00
2022-08-07T05:28:16.043Z,14080.00
2022-08-07T05:28:52.746Z,16904.00
2022-08-07T05:29:52.122Z,10648.00
2022-08-07T05:30:52.264Z,8992.00
2022-08-07T05:31:52.966Z,8636.00
2022-08-07T05:32:51.692Z,8996.00
2022-08-07T05:34:04.791Z,9320.00
2022-08-07T05:34:52.667Z,9644.00
2022-08-07T05:35:51.710Z,9616.00
2022-08-07T05:36:52.987Z,9140.00
2022-08-07T05:38:08.739Z,9028.00
2022-08-07T05:38:59.954Z,9180.00
2022-08-07T05:40:07.157Z,9608.00
2022-08-07T05:40:52.661Z,9800.00
2022-08-07T05:42:02.238Z,10020.00
2022-08-07T05:42:56.347Z,9760.00
2022-08-07T05:44:08.298Z,8924.00
2022-08-07T05:45:04.512Z,9248.00
2022-08-07T05:45:52.573Z,10384.00
2022-08-07T05:46:51.520Z,10664.00
2022-08-07T05:48:02.077Z,10692.00
2022-08-07T05:48:58.128Z,10440.00
2022-08-07T05:49:52.470Z,10268.00
2022-08-07T05:50:51.457Z,9676.00
2022-08-07T05:51:51.458Z,9356.00
2022-08-07T05:52:51.437Z,9996.00
2022-08-07T05:54:09.727Z,11536.00
2022-08-07T05:54:55.872Z,12720.00
2022-08-07T05:56:03.386Z,12124.00
2022-08-07T05:56:52.443Z,10936.00
2022-08-07T05:57:51.380Z,10320.00
2022-08-07T05:58:52.858Z,9712.00
2022-08-07T05:59:57.903Z,9972.00
2022-08-07T06:00:52.343Z,10584.00
2022-08-07T06:01:51.420Z,10444.00
2022-08-07T06:02:51.310Z,11000.00
2022-08-07T06:03:57.283Z,11272.00
2022-08-07T06:04:52.283Z,11944.00
2022-08-07T06:05:56.524Z,12736.00
2022-08-07T06:06:56.784Z,12568.00
2022-08-07T06:08:12.339Z,11736.00
2022-08-07T06:08:52.233Z,12452.00
2022-08-07T06:10:05.764Z,14560.00
2022-08-07T06:10:54.865Z,15520.00
2022-08-07T06:11:51.207Z,14560.00
2022-08-07T06:12:51.181Z,12876.00
2022-08-07T06:14:12.538Z,12020.00
2022-08-07T06:14:52.163Z,11888.00
2022-08-07T06:15:51.161Z,12072.00
2022-08-07T06:16:55.800Z,13364.00
2022-08-07T06:17:55.131Z,15328.00
2022-08-07T06:18:51.740Z,15584.00
2022-08-07T06:20:03.286Z,14432.00
2022-08-07T06:22:15.241Z,14848.00
2022-08-07T06:22:15.858Z,12916.00
2022-08-07T06:23:02.326Z,20736.00
2022-08-07T06:24:46.378Z,23040.00
2022-08-07T06:24:57.723Z,21664.00
2022-08-07T06:25:54.412Z,16064.00
2022-08-07T06:26:52.036Z,12692.00
2022-08-07T06:28:01.467Z,12828.00
2022-08-07T06:28:52.887Z,20960.00
2022-08-07T06:29:50.966Z,32768.00
2022-08-07T06:30:52.862Z,38048.00
2022-08-07T06:31:50.977Z,35328.00
2022-08-07T06:32:50.938Z,21120.00
2022-08-07T06:33:50.915Z,14560.00
2022-08-07T06:34:51.002Z,26976.00
2022-08-07T06:36:06.682Z,60544.00
2022-08-07T06:36:52.548Z,81920.00
2022-08-07T06:37:53.010Z,77696.00
2022-08-07T06:38:59.248Z,50496.00
2022-08-07T06:40:16.777Z,27776.00
2022-08-07T06:40:52.011Z,27680.00
2022-08-07T06:42:01.616Z,58656.00
2022-08-07T06:42:51.830Z,80960.00
2022-08-07T06:43:50.796Z,75424.00
2022-08-07T06:44:51.808Z,45376.00
2022-08-07T06:45:50.784Z,20160.00
2022-08-07T06:46:53.829Z,29024.00
2022-08-07T06:47:58.922Z,61024.00
2022-08-07T06:48:51.739Z,77664.00
2022-08-07T06:49:58.635Z,71264.00
2022-08-07T06:50:51.727Z,40032.00
2022-08-07T06:51:50.719Z,23040.00
2022-08-07T06:52:52.990Z,32736.00
2022-08-07T06:55:33.378Z,59008.00
2022-08-07T06:55:34.246Z,76960.00
2022-08-07T06:56:00.105Z,63168.00
2022-08-07T06:56:51.691Z,35936.00
2022-08-07T06:57:56.378Z,24544.00
2022-08-07T07:00:12.385Z,48960.00
2022-08-07T07:00:12.928Z,28800.00
2022-08-07T07:00:52.795Z,57216.00
2022-08-07T07:01:51.079Z,44064.00
2022-08-07T07:02:54.039Z,26784.00
2022-08-07T07:03:55.151Z,28256.00
2022-08-07T07:04:54.720Z,33600.00
2022-08-07T07:06:03.253Z,53344.00
2022-08-07T07:07:00.131Z,56000.00
2022-08-07T07:07:59.604Z,34272.00
2022-08-07T07:08:51.537Z,30592.00
2022-08-07T07:09:50.784Z,35456.00
2022-08-07T07:10:56.673Z,51840.00
2022-08-07T07:12:07.516Z,65376.00
2022-08-07T07:12:53.518Z,45248.00
2022-08-07T07:13:58.091Z,28480.00
2022-08-07T07:14:51.451Z,31360.00
2022-08-07T07:15:51.870Z,40320.00
2022-08-07T07:16:51.178Z,59968.00
2022-08-07T07:17:52.229Z,58272.00
2022-08-07T07:18:50.384Z,25312.00
2022-08-07T07:19:57.774Z,16544.00
2022-08-07T07:20:51.367Z,10052.00
2022-08-07T07:22:05.348Z,5984.00
2022-08-07T07:24:06.409Z,5060.00
2022-08-07T07:24:08.734Z,5524.00
2022-08-07T07:24:58.390Z,4732.00
2022-08-07T07:26:32.443Z,4568.00
2022-08-07T07:26:52.253Z,4392.00
2022-08-07T07:27:55.487Z,4216.00
2022-08-07T07:29:56.608Z,4148.00
2022-08-07T07:30:09.182Z,4108.00
2022-08-07T07:30:51.264Z,4076.00
2022-08-07T07:31:50.218Z,4044.00
2022-08-07T07:32:50.254Z,4004.00
2022-08-07T07:33:56.474Z,3972.00
2022-08-07T07:34:51.189Z,3936.00
2022-08-07T07:36:04.605Z,3908.00
2022-08-07T07:36:54.004Z,3888.00
2022-08-07T07:38:02.926Z,3856.00
2022-08-07T07:38:51.131Z,3840.00
2022-08-07T07:39:54.993Z,3820.00
2022-08-07T07:40:51.121Z,3808.00
2022-08-07T07:41:50.351Z,3784.00
2022-08-07T07:42:54.333Z,3772.00
2022-08-07T07:44:16.762Z,3752.00
2022-08-07T07:44:51.070Z,3740.00
2022-08-07T07:46:36.936Z,3720.00
2022-08-07T07:46:57.283Z,3700.00
2022-08-07T07:47:52.758Z,3684.00
2022-08-07T07:48:50.053Z,3672.00
2022-08-07T07:50:35.668Z,3668.00
2022-08-07T07:50:51.008Z,3648.00
2022-08-07T07:51:58.531Z,3640.00
2022-08-07T07:52:50.964Z,3620.00
2022-08-07T07:53:52.050Z,3600.00
2022-08-07T07:54:51.500Z,3584.00
2022-08-07T07:55:56.192Z,3560.00
2022-08-07T07:56:50.923Z,3544.00
2022-08-07T07:57:53.149Z,3532.00
2022-08-07T07:58:50.627Z,3528.00
2022-08-07T07:59:52.604Z,3512.00
2022-08-07T08:00:54.057Z,3480.00
2022-08-07T08:02:03.296Z,3476.00
2022-08-07T08:03:04.916Z,3352.00
2022-08-07T08:04:05.955Z,3444.00
2022-08-07T08:04:50.911Z,3428.00
2022-08-07T08:05:54.372Z,3412.00
2022-08-07T08:06:52.202Z,3400.00
2022-08-07T08:07:59.892Z,3392.00
2022-08-07T08:08:50.779Z,3376.00
2022-08-07T08:09:52.476Z,3368.00
2022-08-07T08:10:50.800Z,3360.00
2022-08-07T08:12:02.245Z,3336.00
2022-08-07T08:12:59.231Z,3324.00
2022-08-07T08:13:54.754Z,3320.00
2022-08-07T08:14:49.715Z,3308.00
2022-08-07T08:15:59.118Z,3284.00
2022-08-07T08:16:50.936Z,3260.00
2022-08-07T08:18:17.943Z,3268.00
2022-08-07T08:18:50.666Z,3256.00
2022-08-07T08:20:17.733Z,3240.00
2022-08-07T08:20:50.639Z,3228.00
2022-08-07T08:21:55.375Z,3224.00
2022-08-07T08:22:54.097Z,3200.00
2022-08-07T08:23:50.611Z,3188.00
2022-08-07T08:24:51.310Z,3172.00
2022-08-07T08:25:50.584Z,3160.00
2022-08-07T08:26:50.489Z,3128.00
2022-08-07T08:27:56.475Z,3108.00
2022-08-07T08:28:50.637Z,3096.00
2022-08-07T08:29:55.594Z,3080.00
2022-08-07T08:30:50.963Z,3068.00
2022-08-07T08:31:58.864Z,3044.00
2022-08-07T08:32:50.493Z,3024.00
2022-08-07T08:33:55.563Z,3016.00
2022-08-07T08:34:50.455Z,3000.00
2022-08-07T08:35:50.009Z,2988.00
2022-08-07T08:36:49.433Z,2976.00
2022-08-07T08:38:01.311Z,2972.00
2022-08-07T08:38:50.407Z,2964.00
2022-08-07T08:39:54.994Z,2960.00
2022-08-07T08:40:50.395Z,2956.00
2022-08-07T08:41:57.834Z,2956.00
2022-08-07T08:42:51.562Z,2964.00
2022-08-07T08:43:58.722Z,2980.00
2022-08-07T08:44:50.335Z,3000.00
2022-08-07T08:45:59.562Z,3000.00
2022-08-07T08:46:50.307Z,3028.00
2022-08-07T08:47:52.118Z,3040.00
2022-08-07T08:48:50.900Z,3044.00
2022-08-07T08:50:04.814Z,3052.00
2022-08-07T08:50:51.677Z,3076.00
2022-08-07T08:52:14.437Z,3180.00
2022-08-07T08:52:53.743Z,3276.00
2022-08-07T08:53:49.234Z,3296.00
2022-08-07T08:54:49.207Z,3260.00
2022-08-07T08:55:53.812Z,3224.00
2022-08-07T08:56:50.187Z,3196.00
2022-08-07T08:57:49.178Z,3176.00
2022-08-07T08:58:50.658Z,3132.00
2022-08-07T08:59:50.366Z,3128.00
2022-08-07T09:00:52.629Z,3116.00
2022-08-07T09:01:49.712Z,3080.00
2022-08-07T09:02:49.559Z,3048.00
2022-08-07T09:03:52.631Z,2976.00
2022-08-07T09:04:49.098Z,2916.00
2022-08-07T09:05:49.092Z,1996.00
2022-08-07T09:06:49.076Z,3068.00
2022-08-07T09:07:57.693Z,3116.00
2022-08-07T09:08:50.032Z,3124.00
2022-08-07T09:09:49.023Z,3188.00
2022-08-07T09:10:50.037Z,3252.00
2022-08-07T09:11:55.553Z,3196.00
2022-08-07T09:12:53.124Z,3132.00
2022-08-07T09:13:49.341Z,3064.00
2022-08-07T09:14:50.586Z,2972.00
2022-08-07T09:16:25.686Z,2884.00
2022-08-07T09:16:49.950Z,2848.00
2022-08-07T09:17:59.596Z,2776.00
2022-08-07T09:18:53.444Z,2696.00
2022-08-07T09:19:53.487Z,2640.00
2022-08-07T09:20:58.042Z,2596.00
2022-08-07T09:22:10.084Z,1676.00
2022-08-07T09:24:32.198Z,2128.00
2022-08-07T09:24:33.685Z,2664.00
2022-08-07T09:24:59.775Z,2700.00
2022-08-07T09:25:53.480Z,2708.00
2022-08-07T09:26:51.089Z,2740.00
2022-08-07T09:27:59.884Z,2724.00
2022-08-07T09:30:00.734Z,2680.00
2022-08-07T09:30:06.308Z,2652.00
2022-08-07T09:30:54.585Z,2644.00
2022-08-07T09:31:49.743Z,2624.00
2022-08-07T09:32:48.733Z,2624.00
2022-08-07T09:33:57.740Z,2652.00
2022-08-07T09:34:54.041Z,2648.00
2022-08-07T09:36:04.798Z,2660.00
2022-08-07T09:36:49.984Z,2676.00
2022-08-07T09:37:54.051Z,2656.00
2022-08-07T09:38:50.151Z,2636.00
2022-08-07T09:39:54.266Z,2612.00
2022-08-07T09:40:50.171Z,2592.00
2022-08-07T09:41:58.638Z,2600.00
2022-08-07T09:42:50.371Z,2588.00
2022-08-07T09:44:06.000Z,2560.00
2022-08-07T09:47:24.969Z,2516.00
2022-08-07T09:47:49.987Z,2528.00
2022-08-07T09:47:50.581Z,2536.00
2022-08-07T09:48:01.681Z,2512.00
2022-08-07T09:49:59.701Z,2512.00
2022-08-07T09:50:01.045Z,2484.00
2022-08-07T09:50:51.414Z,2512.00
2022-08-07T09:52:09.972Z,2516.00
2022-08-07T09:52:51.824Z,2540.00
2022-08-07T09:53:56.118Z,2564.00
2022-08-07T09:54:49.459Z,2580.00
2022-08-07T09:56:04.741Z,2564.00
2022-08-07T09:56:49.441Z,2536.00
2022-08-07T09:57:48.435Z,2516.00
2022-08-07T09:58:48.769Z,2480.00
2022-08-07T10:00:00.754Z,2468.00
2022-08-07T10:00:50.560Z,2484.00
2022-08-07T10:01:51.326Z,2504.00
2022-08-07T10:02:55.072Z,2488.00
2022-08-07T10:04:05.163Z,2508.00
2022-08-07T10:04:53.399Z,2516.00
2022-08-07T10:05:59.407Z,2516.00
2022-08-07T10:06:55.716Z,2520.00
2022-08-07T10:07:53.056Z,2504.00
2022-08-07T10:08:49.538Z,2512.00
2022-08-07T10:10:01.050Z,2508.00
2022-08-07T10:11:17.027Z,2544.00
2022-08-07T10:12:02.101Z,2568.00
2022-08-07T10:12:53.309Z,2540.00
2022-08-07T10:14:00.458Z,2504.00
2022-08-07T10:14:55.142Z,2520.00
2022-08-07T10:15:49.185Z,2572.00
2022-08-07T10:16:48.230Z,2584.00
2022-08-07T10:18:01.804Z,2552.00
2022-08-07T10:18:49.202Z,2496.00
2022-08-07T10:19:48.153Z,2476.00
2022-08-07T10:20:50.194Z,2464.00
2022-08-07T10:22:16.332Z,2500.00
2022-08-07T10:22:50.820Z,2496.00
2022-08-07T10:24:05.620Z,2460.00
2022-08-07T10:24:49.086Z,2452.00
2022-08-07T10:25:48.080Z,2420.00
2022-08-07T10:26:53.349Z,2416.00
2022-08-07T10:27:48.038Z,2368.00
2022-08-07T10:28:49.392Z,2376.00
2022-08-07T10:29:51.757Z,2376.00
2022-08-07T10:30:49.018Z,2352.00
2022-08-07T10:31:49.635Z,2356.00
2022-08-07T10:32:53.306Z,2336.00
2022-08-07T10:34:14.471Z,2328.00
2022-08-07T10:34:48.998Z,2312.00
2022-08-07T10:35:57.514Z,2356.00
2022-08-07T10:36:48.942Z,2368.00
2022-08-07T10:38:00.248Z,2384.00
2022-08-07T10:38:49.961Z,2356.00
2022-08-07T10:40:03.363Z,1724.00
2022-08-07T10:40:48.867Z,2328.00
2022-08-07T10:41:54.507Z,2344.00
2022-08-07T10:42:50.000Z,2340.00
2022-08-07T10:43:47.859Z,2144.00
2022-08-07T10:44:47.828Z,2336.00
2022-08-07T10:45:57.995Z,2348.00
2022-08-07T10:46:48.790Z,2328.00
2022-08-07T10:47:53.929Z,2336.00
2022-08-07T10:48:48.813Z,2360.00
2022-08-07T10:49:50.795Z,2096.00
2022-08-07T10:50:50.128Z,1800.00
2022-08-07T10:52:01.801Z,2316.00
2022-08-07T10:52:51.452Z,2316.00
2022-08-07T10:53:47.717Z,2324.00
2022-08-07T10:54:53.366Z,2320.00
2022-08-07T10:55:48.693Z,2324.00
2022-08-07T10:56:47.662Z,2352.00
2022-08-07T10:57:56.033Z,2364.00
2022-08-07T10:58:59.424Z,2344.00
2022-08-07T10:59:48.672Z,2300.00
2022-08-07T11:00:50.165Z,2272.00
2022-08-07T11:01:51.515Z,2256.00
2022-08-07T11:02:49.300Z,2248.00
2022-08-07T11:03:52.804Z,2240.00
2022-08-07T11:04:48.585Z,2236.00
2022-08-07T11:05:50.554Z,2236.00
2022-08-07T11:06:47.570Z,2240.00
2022-08-07T11:07:58.550Z,2236.00
2022-08-07T11:08:48.526Z,2240.00
2022-08-07T11:10:07.341Z,2244.00
2022-08-07T11:10:52.383Z,2248.00
2022-08-07T11:11:51.967Z,2236.00
2022-08-07T11:12:49.110Z,2232.00
2022-08-07T11:14:43.503Z,2216.00
2022-08-07T11:14:57.493Z,2220.00
2022-08-07T11:15:54.561Z,2208.00
2022-08-07T11:16:52.750Z,2220.00
2022-08-07T11:17:48.722Z,2204.00
2022-08-07T11:18:50.734Z,2184.00
2022-08-07T11:19:47.397Z,2200.00
2022-08-07T11:20:47.367Z,2204.00
2022-08-07T11:21:47.379Z,2196.00
2022-08-07T11:22:47.344Z,2192.00
2022-08-07T11:23:48.457Z,2196.00
2022-08-07T11:24:47.355Z,2184.00
2022-08-07T11:25:49.916Z,2184.00
2022-08-07T11:26:50.120Z,2148.00
2022-08-07T11:28:01.410Z,2176.00
2022-08-07T11:28:55.257Z,2164.00
2022-08-07T11:30:09.963Z,2172.00
2022-08-07T11:30:48.256Z,2176.00
2022-08-07T11:31:47.230Z,2180.00
2022-08-07T11:32:47.287Z,2172.00
2022-08-07T11:33:55.397Z,2172.00
2022-08-07T11:34:48.198Z,2160.00
2022-08-07T11:35:59.639Z,2164.00
2022-08-07T11:36:49.654Z,2164.00
2022-08-07T11:38:09.954Z,2168.00
2022-08-07T11:38:50.668Z,2172.00
2022-08-07T11:40:01.006Z,2164.00
2022-08-07T11:40:49.807Z,2160.00
2022-08-07T11:42:02.393Z,2164.00
2022-08-07T11:42:48.112Z,2164.00
2022-08-07T11:44:11.748Z,2164.00
2022-08-07T11:44:52.493Z,2160.00
2022-08-07T11:45:53.089Z,2164.00
2022-08-07T11:46:48.668Z,2188.00
2022-08-07T11:47:56.438Z,2164.00
2022-08-07T11:49:28.600Z,2152.00
2022-08-07T11:50:11.406Z,2160.00
2022-08-07T11:50:57.356Z,2160.00
2022-08-07T11:51:47.996Z,2156.00
2022-08-07T11:52:46.963Z,2160.00
2022-08-07T11:54:00.656Z,2156.00
2022-08-07T11:54:54.521Z,2148.00
2022-08-07T11:56:14.045Z,2148.00
2022-08-07T11:56:53.160Z,2148.00
2022-08-07T11:57:58.494Z,2144.00
2022-08-07T11:58:49.595Z,2140.00
2022-08-07T12:00:11.953Z,2140.00
2022-08-07T12:00:53.637Z,2140.00
2022-08-07T12:02:00.815Z,2144.00
2022-08-07T12:02:52.710Z,2144.00
2022-08-07T12:03:47.947Z,2140.00
2022-08-07T12:04:46.824Z,2140.00
2022-08-07T12:05:48.865Z,2136.00
2022-08-07T12:06:56.214Z,2132.00
2022-08-07T12:07:53.637Z,2136.00
2022-08-07T12:08:47.794Z,2132.00
2022-08-07T12:09:46.810Z,2140.00
2022-08-07T12:10:46.737Z,2136.00
2022-08-07T12:12:09.122Z,2140.00
2022-08-07T12:12:47.707Z,2136.00
2022-08-07T12:13:47.715Z,2132.00
2022-08-07T12:14:55.761Z,2128.00
2022-08-07T12:16:06.733Z,2136.00
2022-08-07T12:16:47.661Z,2136.00
2022-08-07T12:17:58.809Z,2140.00
2022-08-07T12:18:47.666Z,2136.00
2022-08-07T12:20:03.294Z,2132.00
2022-08-07T12:20:49.279Z,2132.00
2022-08-07T12:21:56.007Z,2124.00
2022-08-07T12:22:58.446Z,2128.00